Spotflight – JF001 & JF002

19:31:24 01-04-22 UTC AES:87C002 GES:90 2 80-1111 ! 31 A Boeing 777 300ER Japan Air Self-Defense Force

MFDCTSOOJF012030
REF NO 0001
REF  NO  0001
JAG0001/77/01 PART 1 OF 1
            STS:FPL REQ COR     AT     Z
-ATS
 (FPL-JAG1-
 -B77W/H
 -SDE2E3FGHIJ1J2J3J4J5M1P2RTUVWXYZ/LB1D1
 -LOGD0318
 -N0442F320 DCT LOLSI T174 INDIG L980
  KELOD L979 GOVEN T205 NUKRO DCT +++++
 -EDDB0046
 -PBN/A1B1C1D1L1O1S2T1 SUR/RSP180
  DOF/220402 REG/80-1111 EET/EDUU0033
  SEL/ABEQ CODE/87C002 RMK/TCAS EQUIPPED
 -E/0249 P/0 R/UVE S/M J/L
  D/7 437 C YELLOW
  A/WHITE AND SUN)

PART 01 END

20:04:03 01-04-22 UTC AES:87C002 GES:90 2 80-1111 ! 31 Y Boeing 777 300ER Japan Air Self-Defense Force

MFDCTSOOJF012103
AIRPORT WX
REQ UPLINK  21:03/01Z
AIRPORT WX

OBS TIME 2030
EPWA 012030Z 01012KT 2500 SN BR
     BKN005 00/M00 Q1002 TEMPO 1400 SN
     BKN004=

OBS TIME 2030
UACC 012030Z 21003MPS 4600 BR NSC
     M04/M05 Q1023 NOSIG RMK
     QFE735/0981=

TAF

ISSUED TIME 2000 TAF-L
EPWA 012030Z 0121/0221 02014KT 4000
     -SN BR BKN006 BKN012
TEMPO 0121/0212 04016G28KT 2000 SN
PROB40 TEMPO 0121/0212 0900 SN BLSN
     OVC004
BECMG 0213/0216 9999 SCT030=

ISSUED TIME 1721 TAF-L
UACC 011706Z 0118/0218 22004MPS
     1000 BR BKN005 TX03/0209Z
TNM06/0201Z
TEMPO 0118/0203 VRB02MPS 0200 FZFG
     VV001
BECMG 0203/0205 9999 NSW SCT011
     BKN100=

PART 01 END

20:54:03 01-04-22 UTC AES:87C002 GES:90 2 80-1111 ! 31 N Boeing 777 300ER Japan Air Self-Defense Force

MFDCTSOOJF012153
OPERATION MSG
TO JF001 AND JF002

PIREP NH1902 EDDF-RJTT B787 1923Z
WP EDATA-DIVNO FL/350-370  
IN OCNL TB/LGTP TURB

FROM HND WCH

20:38:03 01-04-22 UTC AES:87C003 GES:90 2 80-1112 ! 31 C Boeing 777 300ER Japan Air Self-Defense Force

ET/WET/WET
+04011750 15 5/5/5 NR/NR/NR NR/NR/NR
WET/WET/WET 50
+RWY 11 CHEMICALLY TREATED. RWY 15
CHEMICALLY TREATED.)

21:09:38 01-04-22 UTC AES:87C003 GES:90 2 80-1112 ! 31 J Boeing 777 300ER Japan Air Self-Defense Force

MFDCTSOOJF012209
OPERATION MSG
TO JF001 AND JF002

EPWA RWY 11/29 CLSD INFO
(NOTAM A0933/22)        
01/2202Z-02/0300Z
RWY 11/29 CLSD FOR LDG AND TKOF

BUT RWY OPEN RWY 15/33

FM HND WCH

Spread the word. Share this post!